ADDS METAR Data INFO
IDs: Format: Raw Decoded Include TAF

Data at: 2054 UTC 24 Jun 2017

KPNA 242035Z AUTO 35005KT 10SM SCT080 20/00 A3038 RMK AO2
KPNA 242015Z AUTO 30006KT 10SM CLR 20/M01 A3038 RMK AO2
KPNA 241955Z AUTO 33008KT 10SM CLR 19/M01 A3039 RMK AO2
KPNA 241935Z AUTO 33007KT 10SM CLR 20/M01 A3039 RMK AO2
KPNA 241915Z AUTO 35007KT 10SM CLR 19/M01 A3040 RMK AO2
KPNA 241855Z AUTO 34007KT 10SM CLR 18/M01 A3041 RMK AO2
KPNA 241835Z AUTO 00000KT 10SM CLR 17/M02 A3041 RMK AO2
KPNA 241815Z AUTO 35005KT 10SM CLR 18/M01 A3041 RMK AO2
KPNA 241755Z AUTO 17004KT 10SM CLR 17/M01 A3042 RMK AO2
KPNA 241735Z AUTO 29005KT 10SM CLR 17/M01 A3042 RMK AO2
KPNA 241715Z AUTO 33003KT 10SM CLR 16/00 A3042 RMK AO2
KPNA 241655Z AUTO 00000KT 10SM CLR 15/00 A3042 RMK AO2
KPNA 241635Z AUTO 24003KT 10SM CLR 15/00 A3042 RMK AO2
KPNA 241615Z AUTO 00000KT 10SM CLR 14/00 A3042 RMK AO2
KPNA 241555Z AUTO 00000KT 10SM CLR 13/00 A3042 RMK AO2
KPNA 241535Z AUTO 00000KT 10SM CLR 12/00 A3043 RMK AO2
KPNA 241515Z AUTO 36004KT 10SM CLR 11/00 A3043 RMK AO2
KPNA 241455Z AUTO 00000KT 10SM CLR 11/00 A3043 RMK AO2
KPNA 241435Z AUTO 00000KT 10SM CLR 10/00 A3043 RMK AO2
KPNA 241415Z AUTO 00000KT 10SM CLR 09/00 A3043 RMK AO2
KPNA 241355Z AUTO 00000KT 10SM CLR 08/00 A3043 RMK AO2
KPNA 241335Z AUTO 00000KT 10SM CLR 07/00 A3042 RMK AO2
KPNA 241315Z AUTO 00000KT 10SM CLR 06/00 A3042 RMK AO2
KPNA 241255Z AUTO 00000KT 10SM CLR 04/01 A3041 RMK AO2
KPNA 241235Z AUTO 29003KT 10SM CLR 03/00 A3041 RMK AO2
KPNA 241215Z AUTO 27004KT 10SM CLR 01/00 A3040 RMK AO2
KPNA 241155Z AUTO 32004KT 10SM CLR 01/M02 A3040 RMK AO2
KPNA 241135Z AUTO 33008KT 10SM CLR 01/M01 A3040 RMK AO2
KPNA 241115Z AUTO 00000KT 10SM CLR 03/M01 A3039 RMK AO2
KPNA 241055Z AUTO 35003KT 10SM CLR 01/M01 A3038 RMK AO2
KPNA 241035Z AUTO 00000KT 10SM CLR 02/M01 A3037 RMK AO2
KPNA 241015Z AUTO 00000KT 10SM CLR 02/00 A3037 RMK AO2
KPNA 240955Z AUTO 00000KT 10SM CLR 03/00 A3037 RMK AO2
KPNA 240935Z AUTO 00000KT 10SM CLR 03/00 A3037 RMK AO2
KPNA 240915Z AUTO 00000KT 10SM CLR 03/M01 A3037 RMK AO2
KPNA 240855Z AUTO 35003KT 10SM CLR 04/00 A3037 RMK AO2
KPNA 240835Z AUTO 36003KT 10SM CLR 04/00 A3037 RMK AO2
KPNA 240815Z AUTO 30005KT 10SM CLR 03/M01 A3037 RMK AO2
KPNA 240755Z AUTO 30005KT 10SM CLR 04/M01 A3036 RMK AO2
KPNA 240735Z AUTO 31004KT 10SM CLR 05/M01 A3036 RMK AO2
KPNA 240715Z AUTO 30006KT 10SM CLR 05/M01 A3035 RMK AO2
KPNA 240655Z AUTO 31008KT 10SM CLR 06/00 A3035 RMK AO2
KPNA 240635Z AUTO 34003KT 10SM CLR 06/00 A3035 RMK AO2
KPNA 240615Z AUTO 02003KT 10SM CLR 06/M01 A3035 RMK AO2
KPNA 240555Z AUTO 35005KT 10SM CLR 07/M01 A3034 RMK AO2
KPNA 240535Z AUTO 31011KT 10SM CLR 08/M02 A3034 RMK AO2
KPNA 240515Z AUTO 33008KT 10SM CLR 08/M02 A3034 RMK AO2
KPNA 240455Z AUTO 30011KT 10SM CLR 09/M04 A3033 RMK AO2
KPNA 240435Z AUTO 30013KT 10SM CLR 10/M04 A3032 RMK AO2
KPNA 240415Z AUTO 31011KT 10SM CLR 10/M03 A3032 RMK AO2
KPNA 240355Z AUTO 31013KT 10SM CLR 11/M02 A3032 RMK AO2
KPNA 240335Z AUTO 31014KT 10SM CLR 12/M03 A3031 RMK AO2
KPNA 240315Z AUTO 31011G16KT 10SM CLR 13/M03 A3030 RMK AO2
KPNA 240255Z AUTO 32010KT 10SM CLR 15/M03 A3029 RMK AO2
KPNA 240235Z AUTO 32009KT 10SM CLR 17/M05 A3029 RMK AO2
KPNA 240215Z AUTO 32012KT 10SM CLR 18/M07 A3029 RMK AO2
KPNA 240155Z AUTO 32013G21KT 10SM CLR 19/M06 A3028 RMK AO2
KPNA 240135Z AUTO 32013KT 10SM CLR 20/M05 A3027 RMK AO2
KPNA 240115Z AUTO 33013KT 10SM CLR 20/M06 A3027 RMK AO2
KPNA 240055Z AUTO 29009G18KT 10SM CLR 20/M06 A3027 RMK AO2
KPNA 240035Z AUTO 32012KT 10SM CLR 21/M05 A3027 RMK AO2
KPNA 240015Z AUTO 34012G19KT 10SM CLR 21/M05 A3026 RMK AO2
KPNA 232355Z AUTO 31010KT 10SM CLR 21/M05 A3027 RMK AO2
KPNA 232335Z AUTO 32008G14KT 10SM CLR 21/M02 A3027 RMK AO2
KPNA 232315Z AUTO 30010G17KT 10SM CLR 21/M05 A3027 RMK AO2
KPNA 232255Z AUTO 30012G19KT 10SM CLR 21/M06 A3027 RMK AO2
KPNA 232235Z AUTO 34015G19KT 10SM CLR 21/M01 A3026 RMK AO2
KPNA 232215Z AUTO 28008KT 10SM CLR 21/00 A3027 RMK AO2
KPNA 232155Z AUTO 29009G15KT 10SM CLR 20/00 A3027 RMK AO2
KPNA 232135Z AUTO 32010G18KT 10SM CLR 20/00 A3027 RMK AO2
KPNA 232115Z AUTO 33006KT 10SM CLR 20/00 A3028 RMK AO2
KPNA 232055Z AUTO 33008G18KT 10SM CLR 20/00 A3029 RMK AO2
KPNA 232035Z AUTO 35008G16KT 10SM CLR 19/00 A3029 RMK AO2
KPNA 232015Z AUTO 33011G19KT 10SM CLR 18/00 A3029 RMK AO2
KPNA 231955Z AUTO 31005KT 10SM CLR 18/00 A3029 RMK AO2
KPNA 231935Z AUTO 36008KT 10SM CLR 18/00 A3030 RMK AO2
KPNA 231915Z AUTO 34006KT 10SM CLR 17/00 A3031 RMK AO2
KPNA 231855Z AUTO 33005KT 10SM CLR 17/00 A3031 RMK AO2
KPNA 231835Z AUTO 10007KT 10SM CLR 16/00 A3032 RMK AO2
KPNA 231815Z AUTO 30003KT 10SM CLR 16/00 A3032 RMK AO2
KPNA 231755Z AUTO 00000KT 10SM CLR 15/00 A3033 RMK AO2
KPNA 231735Z AUTO 07003KT 10SM CLR 15/M01 A3034 RMK AO2
KPNA 231715Z AUTO 02003KT 10SM CLR 14/M01 A3034 RMK AO2
KPNA 231655Z AUTO 20003KT 10SM CLR 13/M01 A3034 RMK AO2
KPNA 231635Z AUTO 28005KT 10SM CLR 13/M01 A3034 RMK AO2
KPNA 231615Z AUTO 26005KT 10SM CLR 12/00 A3034 RMK AO2
KPNA 231555Z AUTO 00000KT 10SM CLR 11/M01 A3035 RMK AO2
KPNA 231535Z AUTO 36003KT 10SM CLR 11/00 A3035 RMK AO2
KPNA 231515Z AUTO 31003KT 10SM CLR 10/00 A3035 RMK AO2
KPNA 231455Z AUTO 32007KT 10SM CLR 10/M01 A3035 RMK AO2
KPNA 231435Z AUTO 30004KT 10SM CLR 09/00 A3035 RMK AO2
KPNA 231415Z AUTO 30007KT 10SM CLR 08/M01 A3035 RMK AO2
KPNA 231355Z AUTO 27005KT 10SM CLR 08/M01 A3035 RMK AO2
KPNA 231335Z AUTO 28004KT 10SM CLR 08/M01 A3035 RMK AO2
KPNA 231315Z AUTO 30006KT 10SM CLR 07/M01 A3034 RMK AO2
KPNA 231255Z AUTO 36003KT 10SM CLR 07/M01 A3034 RMK AO2
KPNA 231235Z AUTO 05004KT 10SM CLR 05/00 A3033 RMK AO2
KPNA 231215Z AUTO 36003KT 10SM CLR 03/00 A3033 RMK AO2
KPNA 231155Z AUTO 00000KT 10SM CLR 04/00 A3032 RMK AO2
KPNA 231135Z AUTO 02005KT 10SM CLR 03/00 A3032 RMK AO2
KPNA 231115Z AUTO 01004KT 10SM CLR 05/00 A3031 RMK AO2
KPNA 231055Z AUTO 04007KT 10SM CLR 05/00 A3031 RMK AO2
KPNA 231035Z AUTO 36003KT 10SM CLR 06/00 A3029 RMK AO2
KPNA 231015Z AUTO 00000KT 10SM CLR 05/00 A3029 RMK AO2
KPNA 230955Z AUTO 00000KT 10SM CLR 05/01 A3029 RMK AO2
KPNA 230935Z AUTO 31005KT 10SM CLR 05/00 A3027 RMK AO2
KPNA 230915Z AUTO 13007KT 10SM CLR 03/00 A3028 RMK AO2
KPNA 230855Z AUTO 27003KT 10SM CLR 03/00 A3027 RMK AO2


Page loaded:  20:54 UTC  |   01:54 PM Pacific  |   02:54 PM Mountain  |   03:54 PM Central  |   04:54 PM Eastern

 

ADVISORIES

FORECASTS

FORECASTS

OBSERVATIONS

USER TOOLS

ABOUT US